Flight Track Log - Related Links

Times and Time Zones

All times are in EDT time to prevent confusion due to time zone crossing. See the EJM552 flight status page for this flight to view local times or setup timezone preferences in your user account.

Time Position Orientation Groundspeed Altitude Reporting Facility
EDT Latitude Longitude Course Direction KTS MPH feet Rate Location/Type
Fri 08:45:43 AM 30.0447 -93.1514 134° Southeast 248 285 4,700  Level Houston Center
Fri 08:46:45 AM 30.1017 -93.1011 37° Northeast 285 328 8,100 2,780 Climbing Houston Center
Fri 08:47:46 AM 30.1792 -93.0728 18° North 292 336 10,400 2,000 Climbing Houston Center
Fri 08:48:48 AM 30.2694 -93.0406 17° North 332 382 12,200 1,790 Climbing Houston Center
Fri 08:49:50 AM 30.3661 -93.0058 17° North 361 415 14,100 1,854 Climbing Houston Center
Fri 08:50:51 AM 30.4644 -92.9708 17° North 371 427 16,000 2,049 Climbing Houston Center
Fri 08:51:53 AM 30.5850 -92.9264 18° North 379 436 18,300 2,032 Climbing Houston Center
Fri 08:52:55 AM 30.6864 -92.8897 17° North 381 438 20,200 1,707 Climbing Houston Center
Fri 08:53:56 AM 30.7847 -92.8561 16° North 387 445 21,800 1,512 Climbing Houston Center
Fri 08:54:58 AM 30.8928 -92.8178 17° North 398 458 23,300 1,500 Climbing Houston Center
Fri 08:56:00 AM 31.0086 -92.7753 17° North 410 472 24,900 1,463 Climbing Houston Center
Fri 08:57:01 AM 31.1208 -92.7358 17° North 417 480 26,300 1,415 Climbing Houston Center
Fri 08:58:03 AM 31.2556 -92.6894 16° North 420 483 27,800 1,210 Climbing Houston Center
Fri 08:59:05 AM 31.3714 -92.6439 19° North 434 499 28,800 976 Climbing Houston Center
Fri 09:00:06 AM 31.4892 -92.6058 15° North 440 506 29,800 976 Climbing Houston Center
Fri 09:01:08 AM 31.6039 -92.5625 18° North 436 502 30,800 968 Climbing Houston Center
Fri 09:02:10 AM 31.7189 -92.5194 18° North 435 501 31,800 968 Climbing Houston Center
Fri 09:03:12 AM 31.8342 -92.4753 18° North 435 501 32,800 585 Climbing Houston Center
Fri 09:04:13 AM 31.9528 -92.4322 17° North 441 507 33,000 98 Climbing Houston Center
Fri 09:05:15 AM 32.1006 -92.3772 17° North 461 531 33,000  Level Houston Center
Fri 09:06:17 AM 32.2211 -92.3292 19° North 460 529 33,000  Level Houston Center
Fri 09:07:18 AM 32.3439 -92.2856 17° North 460 529 33,000  Level Houston Center
Fri 09:07:48 AM 32.4003 -92.2664 16° North 453 521 33,000  Level Fort Worth Center
Fri 09:08:48 AM 32.5258 -92.2197 17° North 453 521 33,000  Level Fort Worth Center
Fri 09:09:48 AM 32.6469 -92.1733 18° North 453 521 33,000 400 Level Fort Worth Center
Fri 09:10:48 AM 32.7744 -92.1264 17° North 458 527 33,800 865 Climbing Fort Worth Center
Fri 09:11:39 AM 32.8875 -92.0864 17° North 454 522 34,600 973 Climbing Memphis Center
Fri 09:12:39 AM 32.9925 -92.0464 18° North 442 509 35,600 1,150 Climbing Memphis Center
Fri 09:13:39 AM 33.1183 -91.9992 17° North 431 496 36,900 1,250 Climbing Memphis Center
Fri 09:14:39 AM 33.2317 -91.9567 17° North 424 488 38,100 1,100 Climbing Memphis Center
Fri 09:15:39 AM 33.3386 -91.9164 17° North 430 495 39,100 1,100 Climbing Memphis Center
Fri 09:16:39 AM 33.4456 -91.8758 18° North 431 496 40,300 950 Climbing Memphis Center
Fri 09:17:39 AM 33.5506 -91.8328 19° North 413 475 41,000 350 Climbing Memphis Center
Fri 09:18:39 AM 33.6636 -91.7922 17° North 406 467 41,000  Level Memphis Center
Fri 09:19:39 AM 33.7769 -91.7492 18° North 411 473 41,000  Level Memphis Center
Fri 09:20:39 AM 33.8817 -91.7058 19° North 419 482 41,000  Level Memphis Center
Fri 09:21:39 AM 34.0031 -91.6625 16° North 414 476 41,000  Level Memphis Center
Fri 09:22:39 AM 34.1183 -91.6192 17° North 429 494 41,000  Level Memphis Center
Fri 09:23:39 AM 34.2314 -91.5756 18° North 429 494 41,000  Level Memphis Center
Fri 09:24:39 AM 34.3592 -91.5272 17° North 430 495 41,000  Level Memphis Center
Fri 09:25:39 AM 34.4744 -91.4808 18° North 430 495 41,000  Level Memphis Center
Fri 09:26:39 AM 34.5917 -91.4369 17° North 430 495 41,000  Level Memphis Center
Fri 09:27:39 AM 34.7047 -91.3903 19° North 430 495 41,000  Level Memphis Center
Fri 09:28:39 AM 34.8178 -91.3461 18° North 425 489 41,000  Level Memphis Center
Fri 09:29:39 AM 34.9328 -91.2994 18° North 431 496 41,000  Level Memphis Center
Fri 09:30:39 AM 35.0353 -91.2625 16° North 425 489 41,000  Level Memphis Center
Fri 09:31:39 AM 35.1483 -91.2156 19° North 425 489 41,000  Level Memphis Center
Fri 09:32:39 AM 35.2614 -91.1683 19° North 425 489 41,000  Level Memphis Center
Fri 09:33:39 AM 35.3764 -91.1236 18° North 425 489 41,000  Level Memphis Center
Fri 09:34:39 AM 35.4892 -91.0786 18° North 425 489 41,000  Level Memphis Center
Fri 09:35:39 AM 35.6022 -91.0336 18° North 425 489 41,000  Level Memphis Center
Fri 09:36:39 AM 35.7067 -90.9886 19° North 423 487 41,000  Level Memphis Center
Fri 09:37:39 AM 35.8194 -90.9433 18° North 418 481 41,000  Level Memphis Center
Fri 09:38:39 AM 35.9364 -90.8981 17° North 418 481 41,000  Level Memphis Center
Fri 09:39:39 AM 36.0492 -90.8525 18° North 425 489 41,000  Level Memphis Center
Fri 09:40:39 AM 36.1619 -90.8044 19° North 425 489 41,000  Level Memphis Center
Fri 09:41:39 AM 36.2769 -90.7611 17° North 425 489 41,000  Level Memphis Center
Fri 09:42:39 AM 36.3875 -90.7153 18° North 425 489 41,000  Level Memphis Center
Fri 09:43:39 AM 36.5042 -90.6694 18° North 425 489 41,000  Level Memphis Center
Fri 09:44:39 AM 36.6253 -90.6181 19° North 425 489 41,000  Level Memphis Center
Fri 09:45:39 AM 36.7381 -90.5719 18° North 425 489 41,000  Level Memphis Center
Fri 09:46:39 AM 36.8525 -90.5228 19° North 425 489 41,000  Level Memphis Center
Fri 09:47:42 AM 36.9603 -90.4739 20° North 431 496 41,000  Level Kansas City Center
Fri 09:48:44 AM 37.0747 -90.4256 19° North 431 496 41,000  Level Kansas City Center
Fri 09:49:46 AM 37.1903 -90.3772 18° North 434 499 41,000  Level Kansas City Center
Fri 09:50:48 AM 37.3042 -90.3294 18° North 432 497 41,000  Level Kansas City Center
Fri 09:51:50 AM 37.4333 -90.2739 19° North 432 497 41,000  Level Kansas City Center
Fri 09:52:52 AM 37.5469 -90.2258 19° North 432 497 41,000  Level Kansas City Center
Fri 09:53:54 AM 37.6600 -90.1756 19° North 432 497 41,000  Level Kansas City Center
Fri 09:54:56 AM 37.7739 -90.1244 20° North 434 499 41,000  Level Kansas City Center
Fri 09:55:58 AM 37.9089 -90.0672 18° North 430 495 41,000  Level Kansas City Center
Fri 09:57:01 AM 38.0261 -90.0158 19° North 433 498 41,000  Level Kansas City Center
Fri 09:58:03 AM 38.1356 -89.9672 19° North 432 497 41,000  Level Kansas City Center
Fri 09:59:05 AM 38.2497 -89.9150 20° North 437 503 41,000 -435 Level Kansas City Center
Fri 10:00:07 AM 38.3631 -89.8656 19° North 435 501 40,100 -1,161 Descending Kansas City Center
Fri 10:01:09 AM 38.4983 -89.8061 19° North 433 498 38,600 -1,306 Descending Kansas City Center
Fri 10:02:11 AM 38.6094 -89.7556 20° North 430 495 37,400 -1,113 Descending Kansas City Center
Fri 10:03:13 AM 38.7258 -89.7033 19° North 438 504 36,300 -1,161 Descending Kansas City Center
Fri 10:04:15 AM 38.8622 -89.6433 19° North 449 517 35,000 -629 Descending Kansas City Center
Fri 10:05:17 AM 38.9811 -89.5900 19° North 453 521 35,000  Level Kansas City Center
Fri 10:06:19 AM 39.1086 -89.5308 20° North 453 521 35,000  Level Kansas City Center
Fri 10:07:21 AM 39.2231 -89.4783 20° North 453 521 35,000 -484 Level Kansas City Center
Fri 10:08:23 AM 39.3425 -89.4225 20° North 456 525 34,000 -968 Descending Kansas City Center
Fri 10:09:25 AM 39.4639 -89.3686 19° North 461 531 33,000 -484 Descending Kansas City Center
Fri 10:10:27 AM 39.5839 -89.3136 19° North 461 531 33,000 -242 Level Kansas City Center
Fri 10:11:29 AM 39.7072 -89.2567 20° North 460 529 32,500 -1,645 Descending Kansas City Center
Fri 10:12:31 AM 39.8522 -89.1881 20° North 461 531 29,600 -1,694 Descending Kansas City Center
Fri 10:13:33 AM 39.9744 -89.1314 20° North 466 536 29,000 -308 Descending Kansas City Center
Fri 10:14:28 AM 40.0689 -89.0914 18° North 462 532 29,000 -564 Level Chicago Center
Fri 10:15:30 AM 40.1947 -89.0694 North 473 544 27,900 -1,452 Descending Chicago Center
Fri 10:16:32 AM 40.3514 -89.0797 357° North 473 544 26,000 -1,694 Descending Chicago Center
Fri 10:17:34 AM 40.4714 -89.0292 18° North 479 551 24,400 -2,226 Descending Chicago Center
Fri 10:18:36 AM 40.5800 -88.9378 33° Northeast 468 539 21,400 -2,903 Descending Chicago Center
Fri 10:19:38 AM 40.6975 -88.8394 32° Northeast 453 521 18,400 -2,736 Descending Chicago Center
Fri 10:20:41 AM 40.7953 -88.7578 32° Northeast 424 488 15,700 -2,208 Descending Chicago Center
Fri 10:21:43 AM 40.8967 -88.7233 14° North 384 442 13,800 -1,790 Descending Chicago Center
Fri 10:22:45 AM 41.0061 -88.7069 North 394 453 12,000 -1,355 Descending Chicago Center
Fri 10:23:47 AM 41.1136 -88.6897 North 388 447 11,000 -484 Descending Chicago Center
Fri 10:24:49 AM 41.2339 -88.6714 North 362 417 11,000 -290 Level Chicago Center
Fri 10:25:51 AM 41.3297 -88.6581 North 349 402 10,400 -1,065 Descending Chicago Center
Fri 10:26:53 AM 41.4144 -88.6447 North 302 348 8,800 -1,548 Descending Chicago Center
Fri 10:27:55 AM 41.4950 -88.6331 North 290 334 7,200 -1,500 Descending Chicago Center
Fri 10:28:57 AM 41.5764 -88.6203 North 293 337 5,700 -1,065 Descending Chicago Center
Fri 10:29:59 AM 41.6447 -88.5725 28° Northeast 286 329 5,000 -726 Descending Chicago Center
Fri 10:31:01 AM 41.7139 -88.4883 42° Northeast 280 322 4,200 -912 Descending Chicago Center
Fri 10:32:04 AM 41.7700 -88.4175 43° Northeast 277 319 3,100 -576 Descending Chicago Center
Fri 10:33:06 AM 41.8239 -88.3525 42° Northeast 267 307 3,000 -48 Descending Chicago Center
Fri 10:34:08 AM 41.8775 -88.3208 24° Northeast 235 270 3,000  Level Chicago Center
Fri 10:35:10 AM 41.9333 -88.3192 North 208 239 3,000 -339 Level Chicago Center
Fri 10:36:12 AM 41.9839 -88.3119 North 193 222 2,300 -581 Descending Chicago Center
Fri 10:37:14 AM 41.9767 -88.2431 98° East 176 203 1,800 -532 Descending Chicago Center
Fri 10:38:16 AM 41.9375 -88.2400 177° South 158 182 1,200 -339 Descending Chicago Center
Fri 10:39:18 AM 41.9019 -88.2567 199° South 154 177 1,100 -97 Descending Chicago Center

Login

Don't have an account? Register now (free) for customized features, flight alerts, and more!